Aérodrome :
LOGIN :

S'inscrire | Disclaimer

   EN    FR    IT 

 










Légende :    VFR   VFR Marginal   IFR   IFR Intensif   IFR Très Intensif
Visi : 
Plafond : 
>= 8 km
>= 3000ft
5 à 8 km
1000 à 3000 ft
1500m à 5 km
500 à 1000 ft
800 à 1500m
200 à 500 ft
< 800m
< 200 ft
Symboles :   Orages  Brouillard  Fortes neiges  Fortes précipitations  Vent > 20 kt
SIGMETs :   Divers  Orages  Givrage  Turbulence  Onde Orograph.  Cendres Volcan.







- Altitude de l'aérodrome : 313 ft
- Code IATA : LEH
- Voir les cartes d'approche


LFOH - Le Havre Octeville

DERNIER METAR :
  • 231730Z AUTO VRB03KT 2700 RA BR FEW017/// OVC029/// ///TCU 08/08 Q1010 TEMPO TSRA BKN010 BKN030CB

METARs EXPIRÉS :
  • 231700Z AUTO VRB02KT 6000 BKN028/// ///TCU 09/08 Q1010 TEMPO 2000 TSRA BKN010 BKN030CB
  • 231630Z AUTO 15003KT 050V210 8000 DZ SCT026 BKN033 OVC042 09/07 Q1010 TEMPO 2000 TSRA BKN010 BKN030CB
  • 231600Z AUTO 04005KT 7000 BKN032 OVC040 10/08 Q1010 TEMPO 2000 TSRA BKN010 BKN030CB
  • 231530Z AUTO 07005KT 4300 -RA BR BKN029 OVC035 10/08 Q1010 TEMPO 2000 TSRA BKN010 BKN030CB
  • 231500Z AUTO 07005KT 9999 BKN030 OVC036 10/07 Q1010 TEMPO 2000 TSRA BKN010 BKN030CB

TAF TAF LFOH
Valide du 23 à 12h jusqu'au 24 à 12h UTC


231100Z 2312/2412 06010KT 9999 BKN030
TEMPO 2312/2403 4000 SHRA BKN010 BKN030TCU
PROB40
TEMPO 2316/2403 2000 TSRA BKN010 BKN030CB
BECMG 2405/2407 BKN008
BECMG 2408/2411 SCT020
ATIS : +33 2 35 54 64 93
Pas de NOTAMs connus pour ce terrain.
4 SIGMETs publiés pour la FIR Paris (LFFF) :
 
Orages noyés dans la masse
LFFF SIGMET 5 VALID 231800/232000 LFPW
LFFF PARIS FIR/UIR EMBD TS FCST WI N4800 E00500 - N4730 E00415 - N4630 E00445 - N4630 E00330 - N4815 E00330 TOP FL320 MOV N 15KT NC=
Annulation du SIGMET 3 
LFFF SIGMET 4 VALID 231730/231800 LFPW
LFFF PARIS FIR/UIR CNL SIGMET 3 231600/231800=
SIGMET 3  ANNULÉ :
Orages noyés dans la masse
LFFF SIGMET 3 VALID 231600/231800 LFPW
LFFF PARIS FIR/UIR EMBD TS OBS WI N5000 E00215 - N4945 E00300 - N4830 E00045 - N4900 E00015 TOP FL320 MOV NW 20KT NC=
Orages noyés dans la masse
LFFF SIGMET 2 VALID 231540/231800 LFPW
LFFF PARIS FIR/UIR EMBD TS OBS WI N4745 E00445 - N4730 E00415 - N4630 E00445 - N4630 E00330 - N4800 E00330 TOP FL320 MOV N 15KT NC=



MET'MAP, la Météo Aéronautique d'un coup d'oeil ! - Copyright ORBIFLY Décembre 2007 - Disclaimer

ORBIFLY MET'MAP TEAM :

Programmation & Développement : Alexandra Zaïnal
Conception & Développement : Baudouin d'Aumeries
Co-Programmation & Développement : Marc-Olivier Méhu
Soutien technique & logistique : Manuel Goepfert

Contact : metmap@orbifly.com




SOURCES & CREDITS :

   NOAA